NZ3C Weather Reports


time (UTC)temp
F
wind
direction
speed
knots
gust
knots
rain 1hr
in
rain 24hr
in
rain mn
in
humidity
%
barometer
mb
20260508085547 50 249 0.0 0.0 0.00 0.00 0.00 97 1015.6
20260508085045 50 249 0.0 0.0 0.00 0.00 0.00 97 1015.8
20260508084541 50 249 0.0 0.0 0.00 0.00 0.00 97 1015.3
20260508084038 50 249 0.0 0.0 0.00 0.00 0.00 97 1015.5
20260508083536 51 249 0.0 0.0 0.00 0.00 0.00 97 1015.7
20260508083032 50 249 0.9 0.9 0.00 0.00 0.00 97 1015.6
20260508082528 50 249 0.0 0.0 0.00 0.00 0.00 97 1015.5
20260508082026 50 249 0.0 0.0 0.00 0.00 0.00 97 1015.4
20260508081523 50 249 0.0 0.0 0.00 0.00 0.00 96 1015.5
20260508081019 51 249 0.0 0.0 0.00 0.00 0.00 96 1015.4
20260508080517 51 249 0.0 0.0 0.00 0.00 0.00 96 1015.2
20260508080014 51 249 0.0 0.0 0.00 0.00 0.00 96 1015.2
20260508075511 51 249 0.0 0.0 0.00 0.00 0.00 96 1015.4
20260508075008 51 249 0.0 0.0 0.00 0.00 0.00 96 1015.1
20260508074506 51 249 0.0 0.0 0.00 0.00 0.00 96 1015.2
20260508074002 52 249 0.0 0.0 0.00 0.00 0.00 95 1015.1
20260508073500 52 249 0.0 0.0 0.00 0.00 0.00 95 1015.2
20260508072957 52 249 0.0 0.0 0.00 0.00 0.00 95 1015.0
20260508072453 52 249 0.0 0.0 0.00 0.00 0.00 95 1015.0
20260508071950 53 249 0.0 0.9 0.00 0.00 0.00 95 1015.2
20260508071448 53 249 0.0 0.0 0.00 0.00 0.00 94 1015.1
20260508070945 53 249 0.0 0.0 0.00 0.00 0.00 94 1015.3
20260508070443 53 249 0.9 0.9 0.00 0.00 0.00 94 1015.2
20260508065941 53 239 0.9 2.6 0.00 0.00 0.00 93 1015.0
20260508065439 53 264 1.7 2.6 0.00 0.00 0.00 93 1015.1
20260508064937 53 236 0.9 1.7 0.00 0.00 0.00 93 1015.2
20260508064434 53 225 0.0 0.9 0.00 0.00 0.00 93 1015.0
20260508063931 53 224 1.7 1.7 0.00 0.00 0.00 93 1015.3
20260508063429 54 248 1.7 2.6 0.00 0.00 0.00 93 1015.1
20260508062926 54 255 0.9 1.7 0.00 0.00 0.00 94 1015.1
20260508062424 54 249 0.9 0.9 0.00 0.00 0.00 94 1015.1
20260508061921 54 247 0.9 0.9 0.00 0.00 0.00 94 1014.9
20260508061418 54 200 0.9 1.7 0.00 0.00 0.00 94 1015.1
20260508060914 54 244 1.7 1.7 0.00 0.00 0.00 94 1015.1
20260508060412 54 240 0.0 0.9 0.00 0.00 0.00 94 1014.7
20260508055907 54 246 0.9 1.7 0.00 0.00 0.00 93 1015.0
20260508055404 54 253 1.7 1.7 0.00 0.00 0.00 94 1014.8
20260508054901 54 246 1.7 1.7 0.00 0.00 0.00 94 1014.8
20260508054358 54 253 1.7 1.7 0.00 0.00 0.00 95 1014.9
20260508053855 54 248 0.9 0.9 0.00 0.00 0.00 95 1015.0
20260508053352 54 248 1.7 1.7 0.00 0.00 0.00 95 1015.0
20260508052850 54 252 0.0 0.9 0.00 0.00 0.00 95 1014.8
20260508052347 54 252 0.0 0.0 0.00 0.00 0.00 95 1014.9
20260508051843 54 252 0.9 0.9 0.00 0.00 0.00 95 1014.9
20260508051338 54 252 0.0 0.0 0.00 0.00 0.00 95 1014.5
20260508050835 54 252 0.0 1.7 0.00 0.00 0.00 95 1014.8
20260508050333 54 237 1.7 1.7 0.00 0.00 0.00 95 1014.7
20260508045828 54 237 0.0 0.0 0.00 0.00 0.00 95 1014.8
20260508045326 54 237 0.0 0.0 0.00 0.00 0.00 95 1014.7
20260508044823 54 237 0.0 0.0 0.00 0.00 0.00 95 1014.9
20260508044319 54 237 0.0 0.0 0.00 0.00 0.00 95 1014.6
20260508043816 54 241 0.9 1.7 0.00 0.00 0.00 95 1014.6
20260508043313 54 245 0.0 0.0 0.00 0.00 0.00 95 1014.5
20260508042809 54 244 0.0 0.9 0.00 0.00 0.00 95 1014.8
20260508042308 54 238 0.9 0.9 0.00 0.00 0.00 95 1014.5
20260508041804 54 238 0.0 0.0 0.00 0.00 0.00 95 1014.6
20260508041300 54 238 0.0 0.9 0.00 0.00 0.00 95 1014.6
20260508040757 54 239 0.0 0.0 0.00 0.00 0.00 95 1014.3
20260508040255 54 239 0.0 0.9 0.00 0.00 0.00 95 1014.1
20260508035751 54 239 1.7 1.7 0.00 0.95 0.95 95 1014.2
20260508035249 54 226 0.9 0.9 0.00 0.95 0.95 95 1014.0
20260508034745 54 83 0.0 0.0 0.00 0.95 0.95 95 1013.7
20260508034243 54 24 0.0 0.0 0.00 0.95 0.95 95 1013.8
20260508033740 54 24 0.0 0.0 0.00 0.95 0.95 95 1014.0
20260508033238 54 24 0.0 0.0 0.00 0.95 0.95 95 1013.9
20260508032735 54 217 0.0 0.0 0.00 0.95 0.95 95 1013.9
20260508032232 54 218 0.0 0.0 0.00 0.95 0.95 95 1014.1
20260508031729 54 217 0.0 0.0 0.00 0.95 0.95 95 1013.8
20260508031225 54 217 0.9 0.0 0.00 0.95 0.95 95 1013.8
20260508030722 54 143 0.0 0.0 0.00 0.95 0.95 95 1013.8
20260508030219 54 142 0.9 0.9 0.00 0.95 0.95 95 1013.4
20260508025715 54 231 0.0 0.0 0.00 0.95 0.95 95 1013.5
20260508025213 54 231 0.0 0.0 0.00 0.95 0.95 95 1013.8
20260508024709 54 231 0.9 0.9 0.00 0.95 0.95 95 1013.8
20260508024206 54 229 0.9 0.9 0.00 0.95 0.95 95 1013.7
20260508023702 54 229 0.0 0.9 0.00 0.95 0.95 95 1013.7
20260508023200 54 228 0.0 0.9 0.00 0.95 0.95 95 1013.6
20260508022655 54 212 0.0 1.7 0.00 0.95 0.95 95 1013.5
20260508022153 54 139 0.0 1.7 0.00 0.95 0.95 95 1013.3
20260508021649 54 233 0.0 0.9 0.00 0.95 0.95 95 1013.4
20260508021144 54 84 0.0 0.9 0.00 0.95 0.95 95 1013.0
20260508020642 54 159 0.9 0.9 0.00 0.95 0.95 95 1013.0
20260508020140 54 148 0.0 0.9 0.00 0.95 0.95 95 1013.0
20260508015637 54 97 0.0 0.0 0.00 0.95 0.95 95 1013.0
20260508015134 54 200 0.0 1.7 0.00 0.95 0.95 95 1012.9
20260508014630 54 55 0.0 0.9 0.00 0.95 0.95 95 1012.9
20260508014126 54 132 1.7 1.7 0.00 0.95 0.95 95 1012.8
20260508013623 54 229 0.0 2.6 0.00 0.95 0.95 94 1013.0
20260508013119 54 138 0.0 0.0 0.00 0.95 0.95 94 1012.3
20260508012617 54 142 0.0 0.9 0.07 0.95 0.95 94 1012.3
20260508012114 54 216 0.9 0.9 0.07 0.95 0.95 94 1012.4
20260508011613 54 224 1.7 1.7 0.00 0.94 0.94 93 1012.6
20260508011109 54 69 0.0 0.0 0.00 0.94 0.94 93 1012.3
20260508010606 54 86 2.6 5.2 0.00 0.94 0.94 93 1012.6
20260508010105 54 27 0.9 2.6 0.00 0.94 0.94 93 1012.3
20260508005600 54 96 3.5 3.5 0.00 0.94 0.94 93 1012.3
20260508005057 54 92 3.5 3.5 0.00 0.94 0.94 93 1012.6
20260508004553 54 162 1.7 1.7 0.00 0.94 0.94 93 1012.7
20260508004050 54 125 0.9 2.6 0.00 0.94 0.94 93 1012.5
20260508003546 54 289 0.9 3.5 0.00 0.94 0.94 93 1012.5
20260508003044 54 149 0.0 2.6 0.00 0.94 0.94 93 1012.1
20260508002540 54 199 0.0 1.7 0.00 0.94 0.94 92 1012.0
20260508002037 54 153 2.6 5.2 0.00 0.94 0.94 92 1011.9
20260508001533 54 176 1.7 1.7 0.00 0.94 0.94 92 1011.6
20260508001029 54 123 0.9 3.5 0.00 0.94 0.94 92 1011.6
20260508000525 54 131 2.6 3.5 0.00 0.94 0.94 91 1011.6
20260508000023 54 160 1.7 2.6 0.00 0.94 0.94 92 1011.3
20260507235519 54 81 1.7 2.6 0.00 0.94 0.94 91 1011.7
20260507235017 54 221 1.7 6.1 0.00 0.94 0.94 92 1011.5
20260507234513 54 67 0.0 2.6 0.00 0.94 0.94 91 1011.4
20260507234010 54 197 2.6 5.2 0.00 0.94 0.94 91 1011.5
20260507233506 54 223 0.9 3.5 0.00 0.94 0.94 91 1011.4
20260507233005 55 232 1.7 2.6 0.00 0.94 0.94 92 1011.5
20260507232501 55 230 0.9 5.2 0.00 0.94 0.94 91 1011.5
20260507231959 55 141 1.7 2.6 0.00 0.94 0.94 91 1011.4
20260507231454 55 78 1.7 3.5 0.00 0.94 0.94 91 1011.1
20260507230952 55 119 1.7 1.7 0.00 0.94 0.94 92 1010.8
20260507230449 56 144 1.7 1.7 0.00 0.94 0.94 91 1010.8
20260507225944 56 65 0.9 1.7 0.00 0.94 0.94 91 1010.9
20260507225440 56 218 0.9 2.6 0.00 0.94 0.94 91 1011.0
20260507224937 56 32 2.6 3.5 0.00 0.94 0.94 90 1011.1
20260507224432 56 196 6.1 7.8 0.00 0.94 0.94 90 1010.9
20260507223930 56 213 0.9 2.6 0.00 0.94 0.94 90 1010.8
20260507223425 56 181 0.0 3.5 0.00 0.94 0.94 91 1011.2
20260507222922 56 135 0.9 2.6 0.00 0.94 0.94 90 1010.9
20260507222419 56 155 0.9 1.7 0.00 0.94 0.94 90 1010.8
20260507221916 56 177 2.6 7.0 0.00 0.94 0.94 90 1010.8
20260507221413 56 214 0.0 2.6 0.00 0.94 0.94 90 1010.9
20260507220908 56 174 2.6 5.2 0.00 0.94 0.94 90 1010.7
20260507220407 56 200 0.0 1.7 0.00 0.94 0.94 90 1010.5
20260507215903 57 134 0.0 5.2 0.00 0.94 0.94 90 1010.6
20260507215400 57 162 1.7 2.6 0.00 0.94 0.94 90 1010.5
20260507214857 57 241 1.7 6.1 0.00 0.94 0.94 90 1010.2
20260507214354 57 221 0.9 2.6 0.00 0.94 0.94 91 1010.2
20260507213850 57 234 1.7 3.5 0.00 0.94 0.94 91 1010.1
20260507213347 58 221 1.7 2.6 0.00 0.94 0.94 90 1010.1
20260507212844 58 210 0.9 5.2 0.00 0.94 0.94 90 1010.1
20260507212339 58 252 4.3 5.2 0.00 0.94 0.94 90 1009.8
20260507211836 59 231 2.6 3.5 0.00 0.94 0.94 89 1009.8
20260507211333 59 213 0.9 2.6 0.00 0.94 0.94 90 1009.5
20260507210830 59 199 3.5 6.1 0.00 0.94 0.94 89 1009.5
20260507210327 59 175 1.7 7.0 0.00 0.94 0.94 89 1009.5
20260507205823 59 104 0.9 12.2 0.00 0.94 0.94 90 1009.3
20260507205320 59 149 2.6 5.2 0.00 0.94 0.94 92 1009.3
20260507204816 59 238 1.7 7.8 0.00 0.94 0.94 92 1009.4
20260507204314 59 201 0.9 5.2 0.00 0.94 0.94 92 1009.3
20260507203812 60 278 5.2 6.1 0.00 0.94 0.94 91 1009.1
20260507203309 60 237 1.7 2.6 0.00 0.94 0.94 92 1009.1
20260507202805 60 205 0.9 5.2 0.00 0.94 0.94 92 1008.8
20260507202301 60 175 0.9 7.0 0.00 0.94 0.94 91 1009.1
20260507201756 60 171 3.5 6.1 0.00 0.94 0.94 91 1008.9
20260507201253 61 164 0.9 5.2 0.00 0.94 0.94 91 1008.9
20260507200750 63 255 2.6 11.3 0.00 0.94 0.94 90 1008.7
20260507200245 64 239 6.1 9.6 0.00 0.94 0.94 90 1008.7
20260507195742 65 95 0.9 7.0 0.00 0.94 0.94 89 1008.6
20260507195239 70 286 3.5 7.8 0.00 0.94 0.94 83 1008.4
20260507194737 75 234 6.1 8.7 0.00 0.94 0.94 81 1008.2
20260507194232 75 281 1.7 2.6 0.00 0.94 0.94 81 1007.8
20260507193729 75 289 4.3 6.1 0.00 0.94 0.94 78 1007.5
20260507193226 75 317 0.0 0.9 0.00 0.94 0.94 82 1007.6
20260507192722 74 274 1.7 6.1 0.00 0.94 0.94 81 1007.6
20260507192219 74 285 2.6 2.6 0.00 0.94 0.94 84 1008.3
20260507191715 74 276 2.6 5.2 0.00 0.94 0.94 85 1008.4
20260507191212 73 277 0.9 3.5 0.00 0.94 0.94 86 1008.3
20260507190709 73 233 0.9 5.2 0.00 0.94 0.94 87 1008.4
20260507190208 72 265 0.9 1.7 0.00 0.94 0.94 88 1008.5
20260507185706 72 214 0.0 2.6 0.00 0.94 0.94 90 1008.7
20260507185202 72 281 5.2 6.1 0.00 0.94 0.94 89 1008.7
20260507184700 71 278 1.7 3.5 0.00 0.94 0.94 91 1009.0
20260507184157 70 275 1.7 1.7 0.00 0.94 0.94 92 1008.9
20260507183653 71 284 1.7 2.6 0.00 0.94 0.94 91 1008.4
20260507183151 71 117 0.9 3.5 0.00 0.94 0.94 91 1008.7
20260507182648 71 249 0.0 0.9 0.00 0.94 0.94 91 1008.7
20260507182143 71 234 0.9 1.7 0.00 0.94 0.94 91 1008.6
20260507181640 71 220 0.0 1.7 0.00 0.94 0.94 92 1008.4
20260507181136 71 279 0.9 1.7 0.00 0.94 0.94 91 1008.5
20260507180633 71 105 2.6 3.5 0.00 0.94 0.94 91 1008.3
20260507180130 72 258 0.0 1.7 0.00 0.94 0.94 91 1008.7
20260507175626 72 240 0.9 5.2 0.00 0.94 0.94 91 1008.6
20260507175123 71 213 3.5 3.5 0.00 0.94 0.94 93 1009.0
20260507174620 70 61 0.9 1.7 0.05 0.94 0.94 94 1009.2
20260507174118 70 260 2.6 2.6 0.12 0.94 0.94 93 1009.2
20260507173615 70 157 0.9 1.7 0.07 0.93 0.93 94 1009.2
20260507173112 69 138 1.7 1.7 0.05 0.92 0.92 94 1009.1
20260507172608 69 109 0.9 0.9 0.12 0.92 0.92 94 1009.4
20260507172106 69 167 0.9 0.9 0.07 0.91 0.91 94 1009.8
20260507171600 69 217 0.0 1.7 0.00 0.90 0.90 95 1009.9
20260507171058 69 302 0.0 0.9 0.05 0.90 0.90 95 1010.0
20260507170555 69 298 0.9 0.9 0.12 0.90 0.90 95 1010.1
20260507170051 69 263 0.9 0.9 0.07 0.89 0.89 95 1010.5
20260507165547 69 104 0.0 0.9 0.07 0.88 0.88 94 1010.3
20260507165044 69 178 0.0 0.9 0.12 0.88 0.88 94 1010.4
20260507164540 69 219 0.0 0.0 0.12 0.87 0.87 94 1010.3
20260507164038 69 293 0.0 0.0 0.12 0.86 0.86 94 1010.1
20260507163535 70 311 1.7 1.7 0.07 0.84 0.84 94 1010.3
20260507163033 70 211 0.0 1.7 0.19 0.84 0.84 93 1010.2
20260507162532 70 241 0.9 1.7 0.17 0.83 0.83 93 1010.2
20260507162030 70 219 0.0 0.9 0.05 0.81 0.81 93 1010.4
20260507161526 70 260 0.0 2.6 0.07 0.80 0.80 93 1010.5
20260507161023 70 324 0.9 0.9 0.07 0.80 0.80 94 1010.4
20260507160519 70 52 0.0 1.7 0.00 0.79 0.79 93 1010.6
20260507160016 70 276 0.9 0.9 0.00 0.79 0.79 94 1010.5
20260507155511 70 108 0.9 1.7 0.05 0.79 0.79 93 1010.6
20260507155008 69 274 0.0 1.7 0.07 0.78 0.78 94 1010.5
20260507154505 69 326 0.0 0.9 0.19 0.78 0.78 94 1010.8
20260507154002 69 311 0.0 0.9 0.31 0.77 0.77 93 1010.8
20260507153459 70 286 0.0 0.0 0.35 0.75 0.75 92 1011.0
20260507152955 70 143 0.9 0.9 0.19 0.71 0.71 91 1011.1
20260507152451 70 35 0.0 1.7 0.07 0.69 0.69 91 1011.3
20260507151947 70 133 0.9 0.9 0.00 0.68 0.68 91 1011.1
20260507151444 70 263 1.7 3.5 0.05 0.68 0.68 90 1011.1
20260507150941 71 248 2.6 3.5 0.05 0.68 0.68 90 1011.3
20260507150437 71 262 0.9 0.9 0.00 0.67 0.67 90 1011.2
20260507145934 71 270 2.6 3.5 0.00 0.67 0.67 89 1011.3
20260507145429 71 245 3.5 3.5 0.00 0.67 0.67 89 1011.1
20260507144927 71 265 0.9 3.5 0.00 0.67 0.67 89 1010.9
20260507144424 71 267 0.0 1.7 0.00 0.67 0.67 90 1011.0
20260507143921 71 239 0.0 0.9 0.00 0.67 0.67 89 1011.0
20260507143418 72 261 3.5 3.5 0.00 0.67 0.67 88 1010.9
20260507142914 72 339 0.9 1.7 0.00 0.67 0.67 89 1010.8
20260507142410 71 225 0.9 1.7 0.00 0.67 0.67 89 1010.9
20260507141908 71 103 0.9 1.7 0.00 0.67 0.67 90 1010.7
20260507141404 71 275 1.7 2.6 0.00 0.67 0.67 90 1010.8
20260507140900 71 249 1.7 1.7 0.00 0.67 0.67 90 1010.9
20260507140357 70 249 1.7 3.5 0.00 0.67 0.67 90 1010.9
20260507135855 71 269 4.3 5.2 0.00 0.67 0.67 91 1010.8
20260507135351 70 256 1.7 1.7 0.00 0.67 0.67 91 1010.7
20260507134849 70 274 1.7 1.7 0.00 0.67 0.67 91 1010.5
20260507134345 70 321 1.7 3.5 0.00 0.67 0.67 92 1010.7
20260507133841 70 266 0.9 2.6 0.00 0.67 0.67 92 1010.5
20260507133337 70 341 0.9 0.9 0.00 0.67 0.67 92 1010.3
20260507132836 70 246 0.9 1.7 0.00 0.67 0.67 92 1010.6
20260507132331 69 71 0.9 1.7 0.00 0.67 0.67 93 1010.6
20260507131829 69 216 0.0 1.7 0.00 0.67 0.67 93 1010.7
20260507131325 69 205 0.0 1.7 0.00 0.67 0.67 93 1010.9
20260507130822 69 147 1.7 1.7 0.00 0.67 0.67 93 1010.9
20260507130319 69 306 0.9 3.5 0.00 0.67 0.67 93 1011.1
20260507125819 69 63 0.0 1.7 0.00 0.67 0.67 93 1011.1
20260507125316 69 357 0.9 3.5 0.00 0.67 0.67 93 1011.0
20260507124813 69 14 1.7 2.6 0.00 0.67 0.67 94 1011.2
20260507124309 69 238 1.7 1.7 0.00 0.67 0.67 94 1011.3
20260507123808 69 179 2.6 3.5 0.00 0.67 0.67 94 1011.2
20260507123305 68 297 0.9 2.6 0.00 0.67 0.67 94 1011.4
20260507122800 68 151 0.0 2.6 0.00 0.67 0.67 95 1011.4
20260507122256 68 269 0.0 1.7 0.00 0.67 0.67 94 1011.9
20260507121752 68 116 0.9 1.7 0.00 0.67 0.67 95 1012.0
20260507121248 68 260 1.7 2.6 0.00 0.67 0.67 95 1012.1
20260507120744 68 234 2.6 8.7 0.00 0.67 0.67 95 1012.1
20260507120241 68 270 0.9 1.7 0.00 0.67 0.67 95 1011.9
20260507115737 68 212 0.9 2.6 0.00 0.67 0.67 95 1012.0
20260507115233 68 281 0.9 1.7 0.00 0.67 0.67 95 1012.1
20260507114729 68 113 0.9 0.9 0.07 0.67 0.67 96 1012.0
20260507114227 68 112 0.0 1.7 0.07 0.67 0.67 96 1012.1
20260507113724 68 87 0.9 1.7 0.00 0.66 0.66 96 1012.1
20260507113221 68 292 0.9 0.9 0.05 0.66 0.66 96 1011.9
20260507112718 68 257 0.9 3.5 0.00 0.65 0.65 96 1012.0
20260507112215 68 232 0.9 2.6 0.07 0.65 0.65 96 1011.2
20260507111713 67 183 0.0 2.6 0.14 0.65 0.65 96 1011.6
20260507111209 67 176 1.7 1.7 0.12 0.64 0.64 96 1011.8
20260507110705 67 231 0.0 0.9 0.17 0.63 0.63 96 1012.0
20260507110202 67 182 0.0 0.9 0.12 0.61 0.61 96 1011.9
20260507105659 67 191 0.0 0.0 0.12 0.60 0.60 96 1012.0
20260507105155 67 233 0.0 0.0 0.05 0.59 0.59 96 1011.8
20260507104652 67 75 0.9 1.7 0.07 0.58 0.58 96 1012.0
20260507104148 67 226 0.9 0.9 0.07 0.58 0.58 96 1011.7
20260507103644 67 204 0.0 0.9 0.00 0.57 0.57 96 1011.7
20260507103141 67 79 0.9 1.7 0.00 0.57 0.57 96 1011.4
20260507102638 67 266 0.9 0.9 0.05 0.57 0.57 96 1011.5
20260507102134 67 214 0.9 0.9 0.05 0.57 0.57 96 1011.3
20260507101630 67 311 0.9 2.6 0.07 0.56 0.56 96 1011.7
20260507101126 67 231 0.0 0.9 0.07 0.56 0.56 96 1011.5
20260507100624 67 96 0.9 1.7 0.05 0.55 0.55 96 1011.5
20260507100122 67 204 0.0 0.9 0.05 0.55 0.55 96 1011.4
20260507095620 67 207 0.9 0.9 0.07 0.54 0.54 96 1011.7
20260507095116 67 246 0.0 0.0 0.12 0.53 0.53 96 1011.7
20260507094612 67 215 0.0 1.7 0.24 0.53 0.53 96 1011.6
20260507094109 67 305 0.0 0.9 0.24 0.51 0.51 95 1011.9
20260507093606 67 278 0.0 1.7 0.31 0.49 0.49 96 1011.7
20260507093105 67 295 0.9 1.7 0.31 0.47 0.47 96 1011.8
20260507092601 67 264 0.9 2.6 0.42 0.44 0.44 95 1011.9
20260507092058 67 293 0.9 1.7 0.66 0.41 0.41 95 1012.0
20260507091555 67 242 1.7 1.7 0.42 0.36 0.36 95 1012.4
20260507091051 67 207 0.0 2.6 0.12 0.30 0.30 95 1012.5
20260507090547 67 299 0.0 0.9 0.19 0.29 0.29 95 1012.6
20260507090044 67 207 0.0 0.9 0.19 0.28 0.28 95 1012.4